sensor_id;sensor_type;location;lat;lon;timestamp;temperature;humidity
42841;DHT22;28491;46.898;7.660;2023-05-13T00:00:09;9.80;66.70
42841;DHT22;28491;46.898;7.660;2023-05-13T00:02:35;9.80;67.50
42841;DHT22;28491;46.898;7.660;2023-05-13T00:05:01;9.80;67.20
42841;DHT22;28491;46.898;7.660;2023-05-13T00:07:26;9.80;66.60
42841;DHT22;28491;46.898;7.660;2023-05-13T00:09:52;9.60;67.50
42841;DHT22;28491;46.898;7.660;2023-05-13T00:12:18;9.60;68.90
42841;DHT22;28491;46.898;7.660;2023-05-13T00:14:43;9.60;68.60
42841;DHT22;28491;46.898;7.660;2023-05-13T00:17:09;9.60;68.10
42841;DHT22;28491;46.898;7.660;2023-05-13T00:19:35;9.50;69.00
42841;DHT22;28491;46.898;7.660;2023-05-13T00:22:00;9.50;69.40
42841;DHT22;28491;46.898;7.660;2023-05-13T00:24:26;9.50;69.20
42841;DHT22;28491;46.898;7.660;2023-05-13T00:26:52;9.40;69.70
42841;DHT22;28491;46.898;7.660;2023-05-13T00:29:17;9.30;68.80
42841;DHT22;28491;46.898;7.660;2023-05-13T00:31:43;9.30;71.90
42841;DHT22;28491;46.898;7.660;2023-05-13T00:34:09;9.40;73.10
42841;DHT22;28491;46.898;7.660;2023-05-13T00:36:34;9.30;73.30
42841;DHT22;28491;46.898;7.660;2023-05-13T00:39:00;9.30;75.40
42841;DHT22;28491;46.898;7.660;2023-05-13T00:41:25;9.40;77.50
42841;DHT22;28491;46.898;7.660;2023-05-13T00:43:53;9.40;77.00
42841;DHT22;28491;46.898;7.660;2023-05-13T00:46:20;9.40;76.60
42841;DHT22;28491;46.898;7.660;2023-05-13T00:48:46;9.40;77.30
42841;DHT22;28491;46.898;7.660;2023-05-13T00:51:11;9.30;77.40
42841;DHT22;28491;46.898;7.660;2023-05-13T00:53:38;9.30;77.00
42841;DHT22;28491;46.898;7.660;2023-05-13T00:56:04;9.50;75.30
42841;DHT22;28491;46.898;7.660;2023-05-13T00:58:30;9.50;73.00
42841;DHT22;28491;46.898;7.660;2023-05-13T01:01:02;9.40;74.20
42841;DHT22;28491;46.898;7.660;2023-05-13T01:03:37;9.30;75.60
42841;DHT22;28491;46.898;7.660;2023-05-13T01:06:19;9.30;78.40
42841;DHT22;28491;46.898;7.660;2023-05-13T01:09:00;9.30;79.90
42841;DHT22;28491;46.898;7.660;2023-05-13T01:11:34;9.30;80.70
42841;DHT22;28491;46.898;7.660;2023-05-13T01:14:08;9.30;79.80
42841;DHT22;28491;46.898;7.660;2023-05-13T01:16:45;9.30;79.50
42841;DHT22;28491;46.898;7.660;2023-05-13T01:22:05;9.30;79.80
42841;DHT22;28491;46.898;7.660;2023-05-13T01:24:31;9.40;81.30
42841;DHT22;28491;46.898;7.660;2023-05-13T01:26:57;9.40;79.60
42841;DHT22;28491;46.898;7.660;2023-05-13T01:29:23;9.40;79.10
42841;DHT22;28491;46.898;7.660;2023-05-13T01:31:50;9.50;78.60
42841;DHT22;28491;46.898;7.660;2023-05-13T01:34:17;9.50;79.80
42841;DHT22;28491;46.898;7.660;2023-05-13T01:36:43;9.60;78.90
42841;DHT22;28491;46.898;7.660;2023-05-13T01:39:10;9.60;77.10
42841;DHT22;28491;46.898;7.660;2023-05-13T01:41:36;9.70;77.10
42841;DHT22;28491;46.898;7.660;2023-05-13T01:44:02;9.70;77.50
42841;DHT22;28491;46.898;7.660;2023-05-13T01:46:27;9.70;77.10
42841;DHT22;28491;46.898;7.660;2023-05-13T01:48:53;9.70;76.90
42841;DHT22;28491;46.898;7.660;2023-05-13T01:51:19;9.70;78.20
42841;DHT22;28491;46.898;7.660;2023-05-13T01:53:44;9.80;78.60
42841;DHT22;28491;46.898;7.660;2023-05-13T01:56:10;9.70;78.60
42841;DHT22;28491;46.898;7.660;2023-05-13T01:58:36;9.70;79.70
42841;DHT22;28491;46.898;7.660;2023-05-13T02:01:01;9.70;79.30
42841;DHT22;28491;46.898;7.660;2023-05-13T02:03:28;9.60;80.10
42841;DHT22;28491;46.898;7.660;2023-05-13T02:05:53;9.60;80.20
42841;DHT22;28491;46.898;7.660;2023-05-13T02:08:19;9.60;80.20
42841;DHT22;28491;46.898;7.660;2023-05-13T02:10:56;9.60;80.30
42841;DHT22;28491;46.898;7.660;2023-05-13T02:13:22;9.60;81.20
42841;DHT22;28491;46.898;7.660;2023-05-13T02:15:48;9.60;79.20
42841;DHT22;28491;46.898;7.660;2023-05-13T02:18:13;9.60;78.90
42841;DHT22;28491;46.898;7.660;2023-05-13T02:20:39;9.70;78.60
42841;DHT22;28491;46.898;7.660;2023-05-13T02:23:05;9.60;77.90
42841;DHT22;28491;46.898;7.660;2023-05-13T02:25:31;9.60;78.10
42841;DHT22;28491;46.898;7.660;2023-05-13T02:27:56;9.50;78.80
42841;DHT22;28491;46.898;7.660;2023-05-13T02:30:22;9.50;80.10
42841;DHT22;28491;46.898;7.660;2023-05-13T02:32:51;9.50;82.10
42841;DHT22;28491;46.898;7.660;2023-05-13T02:35:17;9.50;82.10
42841;DHT22;28491;46.898;7.660;2023-05-13T02:37:43;9.50;82.80
42841;DHT22;28491;46.898;7.660;2023-05-13T02:40:09;9.50;82.50
42841;DHT22;28491;46.898;7.660;2023-05-13T02:42:35;9.60;82.40
42841;DHT22;28491;46.898;7.660;2023-05-13T02:45:00;9.60;83.40
42841;DHT22;28491;46.898;7.660;2023-05-13T02:47:26;9.60;82.20
42841;DHT22;28491;46.898;7.660;2023-05-13T02:49:53;9.70;81.80
42841;DHT22;28491;46.898;7.660;2023-05-13T02:52:19;9.70;80.70
42841;DHT22;28491;46.898;7.660;2023-05-13T02:54:44;9.70;78.70
42841;DHT22;28491;46.898;7.660;2023-05-13T02:57:10;9.70;78.60
42841;DHT22;28491;46.898;7.660;2023-05-13T02:59:36;9.70;78.50
42841;DHT22;28491;46.898;7.660;2023-05-13T03:02:01;9.80;77.80
42841;DHT22;28491;46.898;7.660;2023-05-13T03:04:27;9.80;76.70
42841;DHT22;28491;46.898;7.660;2023-05-13T03:06:52;9.80;77.00
42841;DHT22;28491;46.898;7.660;2023-05-13T03:09:18;9.80;77.90
42841;DHT22;28491;46.898;7.660;2023-05-13T03:11:43;9.80;78.50
42841;DHT22;28491;46.898;7.660;2023-05-13T03:14:09;9.90;76.40
42841;DHT22;28491;46.898;7.660;2023-05-13T03:16:34;9.90;75.40
42841;DHT22;28491;46.898;7.660;2023-05-13T03:19:00;9.90;75.60
42841;DHT22;28491;46.898;7.660;2023-05-13T03:21:25;10.00;77.40
42841;DHT22;28491;46.898;7.660;2023-05-13T03:23:51;9.90;78.90
42841;DHT22;28491;46.898;7.660;2023-05-13T03:26:16;10.00;78.10
42841;DHT22;28491;46.898;7.660;2023-05-13T03:28:42;9.90;77.60
42841;DHT22;28491;46.898;7.660;2023-05-13T03:31:07;9.90;78.70
42841;DHT22;28491;46.898;7.660;2023-05-13T03:33:33;9.80;79.50
42841;DHT22;28491;46.898;7.660;2023-05-13T03:35:58;9.80;80.10
42841;DHT22;28491;46.898;7.660;2023-05-13T03:38:24;9.80;81.30
42841;DHT22;28491;46.898;7.660;2023-05-13T03:40:49;9.80;82.10
42841;DHT22;28491;46.898;7.660;2023-05-13T03:43:15;9.80;82.20
42841;DHT22;28491;46.898;7.660;2023-05-13T03:45:40;9.80;83.90
42841;DHT22;28491;46.898;7.660;2023-05-13T03:48:06;9.80;83.50
42841;DHT22;28491;46.898;7.660;2023-05-13T03:50:31;9.90;84.90
42841;DHT22;28491;46.898;7.660;2023-05-13T03:52:57;9.90;83.40
42841;DHT22;28491;46.898;7.660;2023-05-13T03:55:22;9.90;83.90
42841;DHT22;28491;46.898;7.660;2023-05-13T03:57:48;9.90;84.40
42841;DHT22;28491;46.898;7.660;2023-05-13T04:00:14;9.90;84.20
42841;DHT22;28491;46.898;7.660;2023-05-13T04:02:40;9.90;83.40
42841;DHT22;28491;46.898;7.660;2023-05-13T04:05:05;10.00;82.10
42841;DHT22;28491;46.898;7.660;2023-05-13T04:07:31;9.90;83.40
42841;DHT22;28491;46.898;7.660;2023-05-13T04:09:57;10.00;83.30
42841;DHT22;28491;46.898;7.660;2023-05-13T04:12:23;10.00;81.00
42841;DHT22;28491;46.898;7.660;2023-05-13T04:14:48;10.00;79.90
42841;DHT22;28491;46.898;7.660;2023-05-13T04:17:14;10.00;81.00
42841;DHT22;28491;46.898;7.660;2023-05-13T04:19:39;10.00;82.40
42841;DHT22;28491;46.898;7.660;2023-05-13T04:22:05;10.00;83.10
42841;DHT22;28491;46.898;7.660;2023-05-13T04:24:30;10.00;83.10
42841;DHT22;28491;46.898;7.660;2023-05-13T04:26:56;10.10;81.00
42841;DHT22;28491;46.898;7.660;2023-05-13T04:29:21;10.10;80.30
42841;DHT22;28491;46.898;7.660;2023-05-13T04:31:47;10.20;79.70
42841;DHT22;28491;46.898;7.660;2023-05-13T04:34:12;10.20;79.60
42841;DHT22;28491;46.898;7.660;2023-05-13T04:36:38;10.20;80.90
42841;DHT22;28491;46.898;7.660;2023-05-13T04:39:03;10.20;77.80
42841;DHT22;28491;46.898;7.660;2023-05-13T04:41:29;10.20;75.70
42841;DHT22;28491;46.898;7.660;2023-05-13T04:43:54;10.20;73.80
42841;DHT22;28491;46.898;7.660;2023-05-13T04:46:20;10.20;73.30
42841;DHT22;28491;46.898;7.660;2023-05-13T04:48:45;10.20;72.80
42841;DHT22;28491;46.898;7.660;2023-05-13T04:51:14;10.20;72.30
42841;DHT22;28491;46.898;7.660;2023-05-13T04:53:39;10.20;71.80
42841;DHT22;28491;46.898;7.660;2023-05-13T04:56:05;10.20;71.10
42841;DHT22;28491;46.898;7.660;2023-05-13T04:58:31;10.10;71.30
42841;DHT22;28491;46.898;7.660;2023-05-13T05:00:56;10.20;72.10
42841;DHT22;28491;46.898;7.660;2023-05-13T05:03:23;10.20;72.10
42841;DHT22;28491;46.898;7.660;2023-05-13T05:05:48;10.20;73.00
42841;DHT22;28491;46.898;7.660;2023-05-13T05:08:14;10.20;72.60
42841;DHT22;28491;46.898;7.660;2023-05-13T05:10:40;10.20;72.30
42841;DHT22;28491;46.898;7.660;2023-05-13T05:13:05;10.20;70.80
42841;DHT22;28491;46.898;7.660;2023-05-13T05:15:31;10.20;71.00
42841;DHT22;28491;46.898;7.660;2023-05-13T05:17:56;10.30;70.60
42841;DHT22;28491;46.898;7.660;2023-05-13T05:20:22;10.30;71.70
42841;DHT22;28491;46.898;7.660;2023-05-13T05:22:48;10.40;71.30
42841;DHT22;28491;46.898;7.660;2023-05-13T05:25:14;10.30;69.10
42841;DHT22;28491;46.898;7.660;2023-05-13T05:27:40;10.40;68.00
42841;DHT22;28491;46.898;7.660;2023-05-13T05:30:07;10.40;68.90
42841;DHT22;28491;46.898;7.660;2023-05-13T05:32:33;10.50;68.10
42841;DHT22;28491;46.898;7.660;2023-05-13T05:34:59;10.50;68.60
42841;DHT22;28491;46.898;7.660;2023-05-13T05:37:27;10.40;68.80
42841;DHT22;28491;46.898;7.660;2023-05-13T05:39:52;10.50;69.10
42841;DHT22;28491;46.898;7.660;2023-05-13T05:42:18;10.60;68.30
42841;DHT22;28491;46.898;7.660;2023-05-13T05:44:43;10.60;68.10
42841;DHT22;28491;46.898;7.660;2023-05-13T05:47:09;10.60;67.10
42841;DHT22;28491;46.898;7.660;2023-05-13T05:49:35;10.60;66.80
42841;DHT22;28491;46.898;7.660;2023-05-13T05:52:00;10.60;65.50
42841;DHT22;28491;46.898;7.660;2023-05-13T05:54:26;10.60;65.70
42841;DHT22;28491;46.898;7.660;2023-05-13T05:56:52;10.60;65.30
42841;DHT22;28491;46.898;7.660;2023-05-13T05:59:17;10.60;64.50
42841;DHT22;28491;46.898;7.660;2023-05-13T06:01:43;10.60;65.50
42841;DHT22;28491;46.898;7.660;2023-05-13T06:04:09;10.60;66.40
42841;DHT22;28491;46.898;7.660;2023-05-13T06:06:35;10.70;65.10
42841;DHT22;28491;46.898;7.660;2023-05-13T06:09:01;10.70;64.90
42841;DHT22;28491;46.898;7.660;2023-05-13T06:11:26;10.80;64.00
42841;DHT22;28491;46.898;7.660;2023-05-13T06:13:53;10.80;64.20
42841;DHT22;28491;46.898;7.660;2023-05-13T06:16:18;10.90;64.10
42841;DHT22;28491;46.898;7.660;2023-05-13T06:18:44;10.90;63.60
42841;DHT22;28491;46.898;7.660;2023-05-13T06:21:09;11.00;65.20
42841;DHT22;28491;46.898;7.660;2023-05-13T06:23:35;11.00;62.30
42841;DHT22;28491;46.898;7.660;2023-05-13T06:26:01;11.10;63.50
42841;DHT22;28491;46.898;7.660;2023-05-13T06:28:26;11.10;61.90
42841;DHT22;28491;46.898;7.660;2023-05-13T06:30:52;11.10;62.30
42841;DHT22;28491;46.898;7.660;2023-05-13T06:33:18;11.20;61.60
42841;DHT22;28491;46.898;7.660;2023-05-13T06:35:44;11.20;61.50
42841;DHT22;28491;46.898;7.660;2023-05-13T06:38:14;11.20;60.00
42841;DHT22;28491;46.898;7.660;2023-05-13T06:40:42;11.20;58.10
42841;DHT22;28491;46.898;7.660;2023-05-13T06:43:08;11.20;60.40
42841;DHT22;28491;46.898;7.660;2023-05-13T06:45:34;11.10;60.70
42841;DHT22;28491;46.898;7.660;2023-05-13T06:47:59;11.10;61.00
42841;DHT22;28491;46.898;7.660;2023-05-13T06:50:25;11.10;60.60
42841;DHT22;28491;46.898;7.660;2023-05-13T06:52:51;11.20;60.20
42841;DHT22;28491;46.898;7.660;2023-05-13T06:55:17;11.20;60.70
42841;DHT22;28491;46.898;7.660;2023-05-13T06:57:43;11.20;60.80
42841;DHT22;28491;46.898;7.660;2023-05-13T07:00:12;11.20;49.70
42841;DHT22;28491;46.898;7.660;2023-05-13T07:02:38;11.20;48.70
42841;DHT22;28491;46.898;7.660;2023-05-13T07:05:04;11.20;53.20
42841;DHT22;28491;46.898;7.660;2023-05-13T07:07:30;11.20;57.40
42841;DHT22;28491;46.898;7.660;2023-05-13T07:09:55;11.30;59.30
42841;DHT22;28491;46.898;7.660;2023-05-13T07:12:21;11.30;51.20
42841;DHT22;28491;46.898;7.660;2023-05-13T07:14:47;11.40;51.90
42841;DHT22;28491;46.898;7.660;2023-05-13T07:17:12;11.40;50.60
42841;DHT22;28491;46.898;7.660;2023-05-13T07:19:38;11.50;49.20
42841;DHT22;28491;46.898;7.660;2023-05-13T07:22:03;11.50;56.10
42841;DHT22;28491;46.898;7.660;2023-05-13T07:24:29;11.50;47.70
42841;DHT22;28491;46.898;7.660;2023-05-13T07:26:55;11.50;53.90
42841;DHT22;28491;46.898;7.660;2023-05-13T07:29:20;11.50;60.30
42841;DHT22;28491;46.898;7.660;2023-05-13T07:31:46;11.50;46.30
42841;DHT22;28491;46.898;7.660;2023-05-13T07:34:11;11.60;57.60
42841;DHT22;28491;46.898;7.660;2023-05-13T07:36:37;11.70;45.20
42841;DHT22;28491;46.898;7.660;2023-05-13T07:39:02;11.80;52.80
42841;DHT22;28491;46.898;7.660;2023-05-13T07:41:28;11.90;47.60
42841;DHT22;28491;46.898;7.660;2023-05-13T07:43:53;11.90;33.40
42841;DHT22;28491;46.898;7.660;2023-05-13T07:46:19;12.00;37.90
42841;DHT22;28491;46.898;7.660;2023-05-13T07:48:44;12.10;38.70
42841;DHT22;28491;46.898;7.660;2023-05-13T07:51:10;12.10;35.00
42841;DHT22;28491;46.898;7.660;2023-05-13T07:53:35;12.20;25.30
42841;DHT22;28491;46.898;7.660;2023-05-13T07:56:02;12.20;24.60
42841;DHT22;28491;46.898;7.660;2023-05-13T07:58:27;12.10;27.00
42841;DHT22;28491;46.898;7.660;2023-05-13T08:00:53;12.10;38.20
42841;DHT22;28491;46.898;7.660;2023-05-13T08:03:18;12.00;26.70
42841;DHT22;28491;46.898;7.660;2023-05-13T08:05:44;11.90;20.10
42841;DHT22;28491;46.898;7.660;2023-05-13T08:08:11;11.90;24.10
42841;DHT22;28491;46.898;7.660;2023-05-13T08:10:36;11.90;26.70
42841;DHT22;28491;46.898;7.660;2023-05-13T08:13:02;11.90;22.50
42841;DHT22;28491;46.898;7.660;2023-05-13T08:15:27;11.80;25.30
42841;DHT22;28491;46.898;7.660;2023-05-13T08:17:53;11.80;30.40
42841;DHT22;28491;46.898;7.660;2023-05-13T08:20:19;11.90;35.30
42841;DHT22;28491;46.898;7.660;2023-05-13T08:22:47;11.90;35.40
42841;DHT22;28491;46.898;7.660;2023-05-13T08:25:12;12.00;32.70
42841;DHT22;28491;46.898;7.660;2023-05-13T08:27:40;12.00;24.80
42841;DHT22;28491;46.898;7.660;2023-05-13T08:30:06;12.00;33.00
42841;DHT22;28491;46.898;7.660;2023-05-13T08:32:31;12.10;23.10
42841;DHT22;28491;46.898;7.660;2023-05-13T08:34:57;12.20;26.40
42841;DHT22;28491;46.898;7.660;2023-05-13T08:37:23;12.20;18.60
42841;DHT22;28491;46.898;7.660;2023-05-13T08:39:49;12.30;21.80
42841;DHT22;28491;46.898;7.660;2023-05-13T08:42:15;12.30;18.60
42841;DHT22;28491;46.898;7.660;2023-05-13T08:44:43;12.50;12.30
42841;DHT22;28491;46.898;7.660;2023-05-13T08:50:06;12.40;2.50
42841;DHT22;28491;46.898;7.660;2023-05-13T08:52:31;12.70;20.40
42841;DHT22;28491;46.898;7.660;2023-05-13T08:54:58;12.90;26.30
42841;DHT22;28491;46.898;7.660;2023-05-13T08:57:26;13.10;31.20
42841;DHT22;28491;46.898;7.660;2023-05-13T08:59:51;13.30;37.10
42841;DHT22;28491;46.898;7.660;2023-05-13T09:02:17;13.40;30.20
42841;DHT22;28491;46.898;7.660;2023-05-13T09:04:45;13.60;24.40
42841;DHT22;28491;46.898;7.660;2023-05-13T09:07:15;13.70;27.90
42841;DHT22;28491;46.898;7.660;2023-05-13T09:09:41;13.70;16.10
42841;DHT22;28491;46.898;7.660;2023-05-13T09:12:07;13.90;20.00
42841;DHT22;28491;46.898;7.660;2023-05-13T09:14:33;13.90;19.90
42841;DHT22;28491;46.898;7.660;2023-05-13T09:17:00;14.00;14.80
42841;DHT22;28491;46.898;7.660;2023-05-13T09:19:26;14.10;15.00
42841;DHT22;28491;46.898;7.660;2023-05-13T09:21:52;14.20;6.90
42841;DHT22;28491;46.898;7.660;2023-05-13T09:24:17;14.30;1.00
42841;DHT22;28491;46.898;7.660;2023-05-13T09:26:46;14.60;10.60
42841;DHT22;28491;46.898;7.660;2023-05-13T09:29:24;14.50;1.00
42841;DHT22;28491;46.898;7.660;2023-05-13T09:31:55;14.70;1.00
42841;DHT22;28491;46.898;7.660;2023-05-13T09:34:25;14.70;1.00
42841;DHT22;28491;46.898;7.660;2023-05-13T09:36:58;14.60;1.00
42841;DHT22;28491;46.898;7.660;2023-05-13T09:39:24;14.40;1.00
42841;DHT22;28491;46.898;7.660;2023-05-13T09:41:51;14.30;1.00
42841;DHT22;28491;46.898;7.660;2023-05-13T09:44:17;14.10;1.00
42841;DHT22;28491;46.898;7.660;2023-05-13T09:46:42;14.20;1.00
42841;DHT22;28491;46.898;7.660;2023-05-13T09:49:09;14.10;1.00
42841;DHT22;28491;46.898;7.660;2023-05-13T09:51:35;14.10;4.50
42841;DHT22;28491;46.898;7.660;2023-05-13T09:54:04;14.10;1.00
42841;DHT22;28491;46.898;7.660;2023-05-13T09:56:34;13.90;1.00
42841;DHT22;28491;46.898;7.660;2023-05-13T09:59:01;13.90;2.60
42841;DHT22;28491;46.898;7.660;2023-05-13T10:01:27;13.90;1.00
42841;DHT22;28491;46.898;7.660;2023-05-13T10:03:56;13.70;1.00
42841;DHT22;28491;46.898;7.660;2023-05-13T10:06:25;13.70;1.00
42841;DHT22;28491;46.898;7.660;2023-05-13T10:08:51;13.60;1.00
42841;DHT22;28491;46.898;7.660;2023-05-13T10:11:20;13.40;1.00
42841;DHT22;28491;46.898;7.660;2023-05-13T10:13:58;13.40;1.00
42841;DHT22;28491;46.898;7.660;2023-05-13T10:16:25;13.40;1.00
42841;DHT22;28491;46.898;7.660;2023-05-13T10:18:51;13.50;1.00
42841;DHT22;28491;46.898;7.660;2023-05-13T10:21:18;13.40;1.00
42841;DHT22;28491;46.898;7.660;2023-05-13T10:23:44;13.30;1.00
42841;DHT22;28491;46.898;7.660;2023-05-13T10:26:11;13.40;1.00
42841;DHT22;28491;46.898;7.660;2023-05-13T10:28:37;13.30;1.00
42841;DHT22;28491;46.898;7.660;2023-05-13T10:31:03;13.30;1.30
42841;DHT22;28491;46.898;7.660;2023-05-13T10:33:29;13.30;1.00
42841;DHT22;28491;46.898;7.660;2023-05-13T10:44:08;13.30;1.00
42841;DHT22;28491;46.898;7.660;2023-05-13T10:46:33;13.40;1.00
42841;DHT22;28491;46.898;7.660;2023-05-13T10:48:59;13.30;1.40
42841;DHT22;28491;46.898;7.660;2023-05-13T10:51:25;13.30;1.60
42841;DHT22;28491;46.898;7.660;2023-05-13T10:53:55;13.30;1.00
42841;DHT22;28491;46.898;7.660;2023-05-13T10:56:25;13.20;3.40
42841;DHT22;28491;46.898;7.660;2023-05-13T10:59:00;13.20;5.60
42841;DHT22;28491;46.898;7.660;2023-05-13T11:01:27;13.20;16.70
42841;DHT22;28491;46.898;7.660;2023-05-13T11:04:00;13.20;10.50
42841;DHT22;28491;46.898;7.660;2023-05-13T11:06:36;13.20;16.70
42841;DHT22;28491;46.898;7.660;2023-05-13T11:09:06;13.10;16.70
42841;DHT22;28491;46.898;7.660;2023-05-13T11:11:33;13.10;7.80
42841;DHT22;28491;46.898;7.660;2023-05-13T11:14:06;13.20;7.90
42841;DHT22;28491;46.898;7.660;2023-05-13T11:16:33;13.20;24.50
42841;DHT22;28491;46.898;7.660;2023-05-13T11:19:01;13.20;28.50
42841;DHT22;28491;46.898;7.660;2023-05-13T11:21:35;13.30;46.00
42841;DHT22;28491;46.898;7.660;2023-05-13T11:24:05;13.30;61.20
42841;DHT22;28491;46.898;7.660;2023-05-13T11:26:53;13.40;65.30
42841;DHT22;28491;46.898;7.660;2023-05-13T11:29:30;13.50;66.00
42841;DHT22;28491;46.898;7.660;2023-05-13T11:31:56;13.70;70.40
42841;DHT22;28491;46.898;7.660;2023-05-13T11:34:23;13.70;62.60
42841;DHT22;28491;46.898;7.660;2023-05-13T11:37:05;13.90;65.00
42841;DHT22;28491;46.898;7.660;2023-05-13T11:39:32;13.90;63.80
42841;DHT22;28491;46.898;7.660;2023-05-13T11:41:59;14.10;66.80
42841;DHT22;28491;46.898;7.660;2023-05-13T11:44:29;14.00;59.20
42841;DHT22;28491;46.898;7.660;2023-05-13T11:46:59;14.20;60.90
42841;DHT22;28491;46.898;7.660;2023-05-13T11:49:43;14.20;38.90
42841;DHT22;28491;46.898;7.660;2023-05-13T11:52:17;14.40;26.90
42841;DHT22;28491;46.898;7.660;2023-05-13T11:54:51;14.80;27.80
42841;DHT22;28491;46.898;7.660;2023-05-13T11:57:28;15.00;8.70
42841;DHT22;28491;46.898;7.660;2023-05-13T11:59:57;14.80;1.00
42841;DHT22;28491;46.898;7.660;2023-05-13T12:02:28;14.80;1.00
42841;DHT22;28491;46.898;7.660;2023-05-13T12:04:57;14.70;1.00
42841;DHT22;28491;46.898;7.660;2023-05-13T12:07:24;14.80;25.60
42841;DHT22;28491;46.898;7.660;2023-05-13T12:09:51;14.80;3.10
42841;DHT22;28491;46.898;7.660;2023-05-13T12:12:18;14.70;1.00
42841;DHT22;28491;46.898;7.660;2023-05-13T12:14:45;14.80;1.00
42841;DHT22;28491;46.898;7.660;2023-05-13T12:17:15;15.10;1.00
42841;DHT22;28491;46.898;7.660;2023-05-13T12:28:16;15.80;1.00
42841;DHT22;28491;46.898;7.660;2023-05-13T12:33:23;15.80;1.00
42841;DHT22;28491;46.898;7.660;2023-05-13T12:35:51;15.70;1.00
42841;DHT22;28491;46.898;7.660;2023-05-13T12:38:18;15.60;1.00
42841;DHT22;28491;46.898;7.660;2023-05-13T12:40:45;15.60;1.00
42841;DHT22;28491;46.898;7.660;2023-05-13T12:43:12;15.50;1.00
42841;DHT22;28491;46.898;7.660;2023-05-13T12:45:41;15.60;1.00
42841;DHT22;28491;46.898;7.660;2023-05-13T12:48:07;15.70;1.00
42841;DHT22;28491;46.898;7.660;2023-05-13T12:50:33;15.60;1.00
42841;DHT22;28491;46.898;7.660;2023-05-13T12:52:58;15.60;1.00
42841;DHT22;28491;46.898;7.660;2023-05-13T12:55:25;15.50;1.00
42841;DHT22;28491;46.898;7.660;2023-05-13T12:57:59;15.40;1.00
42841;DHT22;28491;46.898;7.660;2023-05-13T13:00:25;15.40;1.00
42841;DHT22;28491;46.898;7.660;2023-05-13T13:02:51;15.50;1.00
42841;DHT22;28491;46.898;7.660;2023-05-13T13:05:19;15.40;1.00
42841;DHT22;28491;46.898;7.660;2023-05-13T13:07:45;15.30;1.00
42841;DHT22;28491;46.898;7.660;2023-05-13T13:10:10;15.30;1.00
42841;DHT22;28491;46.898;7.660;2023-05-13T13:12:36;15.20;1.00
42841;DHT22;28491;46.898;7.660;2023-05-13T13:15:03;15.10;1.00
42841;DHT22;28491;46.898;7.660;2023-05-13T13:17:28;15.00;1.00
42841;DHT22;28491;46.898;7.660;2023-05-13T13:19:54;14.90;1.00
42841;DHT22;28491;46.898;7.660;2023-05-13T13:22:20;14.90;1.00
42841;DHT22;28491;46.898;7.660;2023-05-13T13:24:45;15.00;1.00
42841;DHT22;28491;46.898;7.660;2023-05-13T13:27:11;14.90;1.00
42841;DHT22;28491;46.898;7.660;2023-05-13T13:29:36;14.90;1.00
42841;DHT22;28491;46.898;7.660;2023-05-13T13:32:02;15.00;1.00
42841;DHT22;28491;46.898;7.660;2023-05-13T13:34:27;15.00;1.00
42841;DHT22;28491;46.898;7.660;2023-05-13T13:36:53;15.00;1.00
42841;DHT22;28491;46.898;7.660;2023-05-13T13:39:19;15.00;1.00
42841;DHT22;28491;46.898;7.660;2023-05-13T13:41:44;15.00;1.00
42841;DHT22;28491;46.898;7.660;2023-05-13T13:44:11;15.00;1.00
42841;DHT22;28491;46.898;7.660;2023-05-13T13:46:37;15.00;1.00
42841;DHT22;28491;46.898;7.660;2023-05-13T13:49:02;15.10;1.00
42841;DHT22;28491;46.898;7.660;2023-05-13T13:51:28;15.10;1.00
42841;DHT22;28491;46.898;7.660;2023-05-13T13:53:53;15.00;1.00
42841;DHT22;28491;46.898;7.660;2023-05-13T13:56:19;15.00;1.00
42841;DHT22;28491;46.898;7.660;2023-05-13T13:58:45;14.90;1.00
42841;DHT22;28491;46.898;7.660;2023-05-13T14:01:10;15.00;1.00
42841;DHT22;28491;46.898;7.660;2023-05-13T14:03:36;14.90;1.00
42841;DHT22;28491;46.898;7.660;2023-05-13T14:06:01;14.90;1.00
42841;DHT22;28491;46.898;7.660;2023-05-13T14:08:27;14.70;1.00
42841;DHT22;28491;46.898;7.660;2023-05-13T14:10:53;14.50;1.00
42841;DHT22;28491;46.898;7.660;2023-05-13T14:13:19;14.30;1.00
42841;DHT22;28491;46.898;7.660;2023-05-13T14:15:45;14.30;1.00
42841;DHT22;28491;46.898;7.660;2023-05-13T14:18:10;14.20;1.00
42841;DHT22;28491;46.898;7.660;2023-05-13T14:20:36;14.20;1.00
42841;DHT22;28491;46.898;7.660;2023-05-13T14:23:02;14.10;1.00
42841;DHT22;28491;46.898;7.660;2023-05-13T14:25:28;14.10;1.00
42841;DHT22;28491;46.898;7.660;2023-05-13T14:27:53;14.20;1.00
42841;DHT22;28491;46.898;7.660;2023-05-13T14:30:19;14.20;1.00
42841;DHT22;28491;46.898;7.660;2023-05-13T14:32:44;14.20;1.00
42841;DHT22;28491;46.898;7.660;2023-05-13T14:35:11;14.30;1.00
42841;DHT22;28491;46.898;7.660;2023-05-13T14:37:37;14.30;1.00
42841;DHT22;28491;46.898;7.660;2023-05-13T14:40:03;14.30;1.00
42841;DHT22;28491;46.898;7.660;2023-05-13T14:42:29;14.40;1.00
42841;DHT22;28491;46.898;7.660;2023-05-13T14:44:54;14.40;1.00
42841;DHT22;28491;46.898;7.660;2023-05-13T14:47:20;14.40;1.00
42841;DHT22;28491;46.898;7.660;2023-05-13T14:49:45;14.50;1.00
42841;DHT22;28491;46.898;7.660;2023-05-13T14:52:11;14.50;1.00
42841;DHT22;28491;46.898;7.660;2023-05-13T14:54:37;14.50;1.00
42841;DHT22;28491;46.898;7.660;2023-05-13T14:57:03;14.50;1.00
42841;DHT22;28491;46.898;7.660;2023-05-13T14:59:30;14.40;1.00
42841;DHT22;28491;46.898;7.660;2023-05-13T15:01:56;14.40;1.00
42841;DHT22;28491;46.898;7.660;2023-05-13T15:04:22;14.40;1.00
42841;DHT22;28491;46.898;7.660;2023-05-13T15:06:47;14.50;1.00
42841;DHT22;28491;46.898;7.660;2023-05-13T15:09:13;14.60;1.00
42841;DHT22;28491;46.898;7.660;2023-05-13T15:11:39;14.50;1.00
42841;DHT22;28491;46.898;7.660;2023-05-13T15:14:06;14.50;1.00
42841;DHT22;28491;46.898;7.660;2023-05-13T15:16:31;14.50;1.00
42841;DHT22;28491;46.898;7.660;2023-05-13T15:18:57;14.50;1.00
42841;DHT22;28491;46.898;7.660;2023-05-13T15:21:22;14.50;1.00
42841;DHT22;28491;46.898;7.660;2023-05-13T15:23:49;14.50;1.00
42841;DHT22;28491;46.898;7.660;2023-05-13T15:26:14;14.50;1.00
42841;DHT22;28491;46.898;7.660;2023-05-13T15:28:40;14.50;1.00
42841;DHT22;28491;46.898;7.660;2023-05-13T15:31:06;14.50;1.00
42841;DHT22;28491;46.898;7.660;2023-05-13T15:33:31;14.60;1.00
42841;DHT22;28491;46.898;7.660;2023-05-13T15:35:57;14.60;1.00
42841;DHT22;28491;46.898;7.660;2023-05-13T15:38:23;14.60;1.00
42841;DHT22;28491;46.898;7.660;2023-05-13T15:40:49;14.70;1.00
42841;DHT22;28491;46.898;7.660;2023-05-13T15:43:14;14.80;1.00
42841;DHT22;28491;46.898;7.660;2023-05-13T15:45:40;14.80;1.00
42841;DHT22;28491;46.898;7.660;2023-05-13T15:48:06;14.80;1.00
42841;DHT22;28491;46.898;7.660;2023-05-13T15:50:32;14.80;3.80
42841;DHT22;28491;46.898;7.660;2023-05-13T15:52:58;14.70;13.20
42841;DHT22;28491;46.898;7.660;2023-05-13T15:55:23;14.50;20.30
42841;DHT22;28491;46.898;7.660;2023-05-13T15:57:49;14.40;21.10
42841;DHT22;28491;46.898;7.660;2023-05-13T16:00:15;14.20;21.70